Terminal Aerodrome Forecast
Issued by NWS

Home | Current Version | Previous Version | Text Only | Print | Product List | Glossary On
Versions: 1 2 3 4 5 6 7 8 9 10 11 12 13 14 15
000
FTUS44 KBMX 310800 AAA
TAFMGM
TAF AMD
KMGM 310827Z 3108/0106 00000KT P6SM BKN020
      TEMPO 3110/3112 3SM BR SCT007 BKN012
     FM311400 18003KT P6SM SCT250
     FM010100 20003KT P6SM SCT250=

USA.gov is the U.S. government's official web portal to all federal, state and local government web resources and services.